Beaver Dams, New York
Current Conditions -  °F | °C
As of 10:53 PM on Monday 22 Dec 2014 (Local Time) from KELM Reporting Station
Light Rain Light Rain  
Wind Chill: 34°   Ceiling: 2300
Heat Index: 34°   Visibility: 8mi
Dew Point: 32°   Wind: 0mph
Humidity: 92%   Direction: NA
Pressure: 30.11"   Gusts: NA
Location:  42.29°N, 76.96°W
Report Text: KELM 230353Z AUTO 00000KT 8SM -RA BKN023 BKN028 OVC042 01/00 A3011 RMK AO2 SLP205 P0001 T00110000
Loading
Personal Weather Stations






























Interactive Weather Map New forecast layout! Learn more

10-Day Weather Forecast

Advertisements
Track Severe Weather on mobile